CZEM/ZEM METAR and TAF weather

Enter ICAO airport designator
Station Type Date Time Source
CZEM METAR 2020/02/21 15:00 UTC NOAA

CZEM 211500Z 20016G23KT 15SM SCT220 M08/M13 A2960 RMK CI1 SLP027


Station Type Date Time Source
CZEM Decoded METAR 2020/02/21 15:00 UTC NOAA

Eastmain River Airport, Canada (CZEM) 52-14N 078-31W
Feb 21, 2020 - 10:00 AM EST / 2020.02.21 1500 UTC
Wind: from the SSW (200 degrees) at 18 MPH (16 KT) gusting to 26 MPH (23 KT):0
Visibility: 15 mile(s):0
Sky conditions: partly cloudy
Temperature: 17 F (-8 C)
Windchill: 1 F (-17 C):1
Dew Point: 8 F (-13 C)
Relative Humidity: 67%
Pressure (altimeter): 29.6 in. Hg (1002 hPa)
ob: CZEM 211500Z 20016G23KT 15SM SCT220 M08/M13 A2960 RMK CI1 SLP027
cycle: 15

Station Type Date Time Source
CZEM TAF UTC NOAA

Error!

Example: see airport list